sensor_id;sensor_type;location;lat;lon;timestamp;pressure;altitude;pressure_sealevel;temperature
24278;BMP280;12394;42.692;23.314;2022-11-25T00:01:55;94760.16;;;6.40
24278;BMP280;12394;42.692;23.314;2022-11-25T00:04:20;94775.34;;;6.35
24278;BMP280;12394;42.692;23.314;2022-11-25T00:06:45;94772.72;;;6.31
24278;BMP280;12394;42.692;23.314;2022-11-25T00:09:11;94778.28;;;6.33
24278;BMP280;12394;42.692;23.314;2022-11-25T00:11:39;94774.94;;;6.36
24278;BMP280;12394;42.692;23.314;2022-11-25T00:14:06;94778.69;;;6.35
24278;BMP280;12394;42.692;23.314;2022-11-25T00:16:31;94766.69;;;6.16
24278;BMP280;12394;42.692;23.314;2022-11-25T00:18:57;94775.66;;;6.26
24278;BMP280;12394;42.692;23.314;2022-11-25T00:21:25;94767.47;;;6.24
24278;BMP280;12394;42.692;23.314;2022-11-25T00:23:59;94778.69;;;6.39
24278;BMP280;12394;42.692;23.314;2022-11-25T00:26:26;94780.94;;;6.40
24278;BMP280;12394;42.692;23.314;2022-11-25T00:28:53;94780.53;;;6.35
24278;BMP280;12394;42.692;23.314;2022-11-25T00:31:25;94766.41;;;6.32
24278;BMP280;12394;42.692;23.314;2022-11-25T00:33:51;94786.16;;;6.44
24278;BMP280;12394;42.692;23.314;2022-11-25T00:36:26;94792.84;;;6.48
24278;BMP280;12394;42.692;23.314;2022-11-25T00:41:22;94765.31;;;6.37
24278;BMP280;12394;42.692;23.314;2022-11-25T00:44:08;94778.69;;;6.39
24278;BMP280;12394;42.692;23.314;2022-11-25T00:46:53;94779.47;;;6.43
24278;BMP280;12394;42.692;23.314;2022-11-25T00:49:18;94790.63;;;6.47
24278;BMP280;12394;42.692;23.314;2022-11-25T00:51:43;94790.63;;;6.47
24278;BMP280;12394;42.692;23.314;2022-11-25T00:54:09;94793.63;;;6.56
24278;BMP280;12394;42.692;23.314;2022-11-25T00:56:34;94799.16;;;6.51
24278;BMP280;12394;42.692;23.314;2022-11-25T00:58:59;94795.88;;;6.54
24278;BMP280;12394;42.692;23.314;2022-11-25T01:01:25;94777.97;;;6.42
24278;BMP280;12394;42.692;23.314;2022-11-25T01:03:51;94790.59;;;6.43
24278;BMP280;12394;42.692;23.314;2022-11-25T01:06:17;94790.16;;;6.34
24278;BMP280;12394;42.692;23.314;2022-11-25T01:08:43;94795.03;;;6.39
24278;BMP280;12394;42.692;23.314;2022-11-25T01:11:14;94786.19;;;6.51
24278;BMP280;12394;42.692;23.314;2022-11-25T01:13:39;94788.44;;;6.52
24278;BMP280;12394;42.692;23.314;2022-11-25T01:16:06;94800.28;;;6.50
24278;BMP280;12394;42.692;23.314;2022-11-25T01:18:32;94789.88;;;6.50
24278;BMP280;12394;42.692;23.314;2022-11-25T01:21:13;94778.75;;;6.49
24278;BMP280;12394;42.692;23.314;2022-11-25T01:23:39;94776.84;;;6.43
24278;BMP280;12394;42.692;23.314;2022-11-25T01:26:14;94782.47;;;6.52
24278;BMP280;12394;42.692;23.314;2022-11-25T01:28:40;94761.53;;;6.27
24278;BMP280;12394;42.692;23.314;2022-11-25T01:31:15;94784.31;;;6.44
24278;BMP280;12394;42.692;23.314;2022-11-25T01:33:41;94785.81;;;6.49
24278;BMP280;12394;42.692;23.314;2022-11-25T01:36:15;94784.34;;;6.55
24278;BMP280;12394;42.692;23.314;2022-11-25T01:38:42;94780.97;;;6.44
24278;BMP280;12394;42.692;23.314;2022-11-25T01:41:11;94769.81;;;6.47
24278;BMP280;12394;42.692;23.314;2022-11-25T01:43:37;94770.22;;;6.52
24278;BMP280;12394;42.692;23.314;2022-11-25T01:46:11;94772.91;;;6.63
24278;BMP280;12394;42.692;23.314;2022-11-25T01:51:35;94763.63;;;6.65
24278;BMP280;12394;42.692;23.314;2022-11-25T01:54:05;94760.28;;;6.68
24278;BMP280;12394;42.692;23.314;2022-11-25T01:56:36;94752.88;;;6.67
24278;BMP280;12394;42.692;23.314;2022-11-25T01:59:04;94752.13;;;6.70
24278;BMP280;12394;42.692;23.314;2022-11-25T02:01:30;94756.59;;;6.73
24278;BMP280;12394;42.692;23.314;2022-11-25T02:03:56;94761.41;;;6.71
24278;BMP280;12394;42.692;23.314;2022-11-25T02:06:28;94775.94;;;6.79
24278;BMP280;12394;42.692;23.314;2022-11-25T02:09:02;94780.03;;;6.84
24278;BMP280;12394;42.692;23.314;2022-11-25T02:11:29;94768.06;;;6.65
24278;BMP280;12394;42.692;23.314;2022-11-25T02:13:57;94757.31;;;6.63
24278;BMP280;12394;42.692;23.314;2022-11-25T02:16:23;94778.19;;;6.81
24278;BMP280;12394;42.692;23.314;2022-11-25T02:18:49;94764.38;;;6.73
24278;BMP280;12394;42.692;23.314;2022-11-25T02:21:23;94778.53;;;6.79
24278;BMP280;12394;42.692;23.314;2022-11-25T02:24:01;94779.22;;;6.72
24278;BMP280;12394;42.692;23.314;2022-11-25T02:26:28;94779.22;;;6.72
24278;BMP280;12394;42.692;23.314;2022-11-25T02:28:53;94784.44;;;6.72
24278;BMP280;12394;42.692;23.314;2022-11-25T02:31:20;94758.31;;;6.44
24278;BMP280;12394;42.692;23.314;2022-11-25T02:33:46;94796.66;;;6.68
24278;BMP280;12394;42.692;23.314;2022-11-25T02:36:14;94774.34;;;6.57
24278;BMP280;12394;42.692;23.314;2022-11-25T02:38:50;94792.56;;;6.64
24278;BMP280;12394;42.692;23.314;2022-11-25T02:41:27;94792.22;;;6.65
24278;BMP280;12394;42.692;23.314;2022-11-25T02:43:52;94794.03;;;6.61
24278;BMP280;12394;42.692;23.314;2022-11-25T02:46:20;94784.75;;;6.57
24278;BMP280;12394;42.692;23.314;2022-11-25T02:48:47;94792.97;;;6.66
24278;BMP280;12394;42.692;23.314;2022-11-25T02:51:16;94789.97;;;6.64
24278;BMP280;12394;42.692;23.314;2022-11-25T02:53:42;94790.28;;;6.55
24278;BMP280;12394;42.692;23.314;2022-11-25T02:56:10;94784.69;;;6.50
24278;BMP280;12394;42.692;23.314;2022-11-25T02:58:36;94792.19;;;6.62
24278;BMP280;12394;42.692;23.314;2022-11-25T06:03:01;94997.31;;;6.41
24278;BMP280;12394;42.692;23.314;2022-11-25T06:05:26;95001.03;;;6.40
24278;BMP280;12394;42.692;23.314;2022-11-25T06:07:52;95006.63;;;6.45
24278;BMP280;12394;42.692;23.314;2022-11-25T06:10:18;95007.53;;;6.60
24278;BMP280;12394;42.692;23.314;2022-11-25T06:12:43;95000.88;;;6.62
24278;BMP280;12394;42.692;23.314;2022-11-25T06:15:09;95026.13;;;7.09
24278;BMP280;12394;42.692;23.314;2022-11-25T06:17:35;95013.56;;;7.19
24278;BMP280;12394;42.692;23.314;2022-11-25T06:20:00;95041.53;;;7.32
24278;BMP280;12394;42.692;23.314;2022-11-25T06:22:26;95048.16;;;7.23
24278;BMP280;12394;42.692;23.314;2022-11-25T06:24:51;95028.63;;;6.95
24278;BMP280;12394;42.692;23.314;2022-11-25T06:27:17;95046.81;;;6.95
24278;BMP280;12394;42.692;23.314;2022-11-25T06:29:42;95051.38;;;7.05
24278;BMP280;12394;42.692;23.314;2022-11-25T06:32:07;95046.91;;;7.06
24278;BMP280;12394;42.692;23.314;2022-11-25T06:34:33;95049.50;;;7.06
24278;BMP280;12394;42.692;23.314;2022-11-25T06:37:00;95062.88;;;7.04
24278;BMP280;12394;42.692;23.314;2022-11-25T06:39:25;95054.81;;;7.17
24278;BMP280;12394;42.692;23.314;2022-11-25T06:41:51;95065.97;;;7.21
24278;BMP280;12394;42.692;23.314;2022-11-25T06:44:17;95052.22;;;7.20
24278;BMP280;12394;42.692;23.314;2022-11-25T06:46:42;95067.63;;;7.43
24278;BMP280;12394;42.692;23.314;2022-11-25T06:49:07;95062.72;;;7.31
24278;BMP280;12394;42.692;23.314;2022-11-25T06:51:33;95058.31;;;7.38
24278;BMP280;12394;42.692;23.314;2022-11-25T06:53:58;95077.28;;;7.39
24278;BMP280;12394;42.692;23.314;2022-11-25T06:56:26;95081.03;;;7.45
24278;BMP280;12394;42.692;23.314;2022-11-25T06:58:52;95079.97;;;7.53
24278;BMP280;12394;42.692;23.314;2022-11-25T07:01:20;95080.00;;;7.56
24278;BMP280;12394;42.692;23.314;2022-11-25T07:03:48;95066.91;;;7.46
24278;BMP280;12394;42.692;23.314;2022-11-25T07:06:15;95084.06;;;7.54
24278;BMP280;12394;42.692;23.314;2022-11-25T07:08:41;95079.66;;;7.62
24278;BMP280;12394;42.692;23.314;2022-11-25T07:11:10;95075.91;;;7.59
24278;BMP280;12394;42.692;23.314;2022-11-25T07:13:37;95093.75;;;7.57
24278;BMP280;12394;42.692;23.314;2022-11-25T07:16:04;95094.53;;;7.65
24278;BMP280;12394;42.692;23.314;2022-11-25T07:18:31;95086.03;;;7.71
24278;BMP280;12394;42.692;23.314;2022-11-25T07:21:05;95092.78;;;7.83
24278;BMP280;12394;42.692;23.314;2022-11-25T07:23:31;95096.94;;;7.91
24278;BMP280;12394;42.692;23.314;2022-11-25T07:26:05;95087.38;;;8.13
24278;BMP280;12394;42.692;23.314;2022-11-25T07:28:31;95112.34;;;8.24
24278;BMP280;12394;42.692;23.314;2022-11-25T07:33:46;95100.78;;;8.15
24278;BMP280;12394;42.692;23.314;2022-11-25T07:36:13;95101.13;;;8.10
24278;BMP280;12394;42.692;23.314;2022-11-25T07:38:39;95105.63;;;8.16
24278;BMP280;12394;42.692;23.314;2022-11-25T07:43:38;95104.91;;;8.23
24278;BMP280;12394;42.692;23.314;2022-11-25T07:46:31;95112.63;;;9.37
24278;BMP280;12394;42.692;23.314;2022-11-25T07:48:59;95112.88;;;11.59
24278;BMP280;12394;42.692;23.314;2022-11-25T07:53:54;95111.63;;;13.33
24278;BMP280;12394;42.692;23.314;2022-11-25T07:56:19;95122.84;;;15.02
24278;BMP280;12394;42.692;23.314;2022-11-25T07:58:46;95113.63;;;17.03
24278;BMP280;12394;42.692;23.314;2022-11-25T08:01:13;95121.69;;;17.12
24278;BMP280;12394;42.692;23.314;2022-11-25T08:03:40;95116.19;;;16.94
24278;BMP280;12394;42.692;23.314;2022-11-25T08:06:08;95125.81;;;17.86
24278;BMP280;12394;42.692;23.314;2022-11-25T08:08:35;95130.97;;;18.58
24278;BMP280;12394;42.692;23.314;2022-11-25T08:11:05;95128.25;;;19.41
24278;BMP280;12394;42.692;23.314;2022-11-25T08:13:30;95128.38;;;19.87
24278;BMP280;12394;42.692;23.314;2022-11-25T08:15:58;95131.00;;;20.87
24278;BMP280;12394;42.692;23.314;2022-11-25T08:18:23;95122.22;;;21.47
24278;BMP280;12394;42.692;23.314;2022-11-25T08:20:49;95140.91;;;21.38
24278;BMP280;12394;42.692;23.314;2022-11-25T08:23:14;95135.44;;;21.65
24278;BMP280;12394;42.692;23.314;2022-11-25T08:25:40;95141.81;;;21.35
24278;BMP280;12394;42.692;23.314;2022-11-25T08:28:06;95131.41;;;20.34
24278;BMP280;12394;42.692;23.314;2022-11-25T08:30:31;95147.47;;;20.40
24278;BMP280;12394;42.692;23.314;2022-11-25T08:32:57;95137.28;;;22.06
24278;BMP280;12394;42.692;23.314;2022-11-25T08:35:23;95137.66;;;21.90
24278;BMP280;12394;42.692;23.314;2022-11-25T08:37:48;95138.69;;;21.93
24278;BMP280;12394;42.692;23.314;2022-11-25T08:40:14;95135.75;;;22.82
24278;BMP280;12394;42.692;23.314;2022-11-25T08:42:39;95133.72;;;22.24
24278;BMP280;12394;42.692;23.314;2022-11-25T08:45:05;95140.00;;;21.97
24278;BMP280;12394;42.692;23.314;2022-11-25T08:47:31;95130.13;;;22.95
24278;BMP280;12394;42.692;23.314;2022-11-25T08:49:57;95137.56;;;24.30
24278;BMP280;12394;42.692;23.314;2022-11-25T08:52:22;95146.22;;;23.85
24278;BMP280;12394;42.692;23.314;2022-11-25T08:54:48;95142.84;;;23.84
24278;BMP280;12394;42.692;23.314;2022-11-25T08:57:14;95121.06;;;24.32
24278;BMP280;12394;42.692;23.314;2022-11-25T08:59:40;95130.03;;;25.43
24278;BMP280;12394;42.692;23.314;2022-11-25T09:02:07;95142.56;;;25.26
24278;BMP280;12394;42.692;23.314;2022-11-25T09:04:33;95143.94;;;24.85
24278;BMP280;12394;42.692;23.314;2022-11-25T09:06:59;95140.16;;;24.45
24278;BMP280;12394;42.692;23.314;2022-11-25T09:09:25;95141.31;;;24.39
24278;BMP280;12394;42.692;23.314;2022-11-25T09:11:51;95143.59;;;23.50
24278;BMP280;12394;42.692;23.314;2022-11-25T09:14:16;95142.25;;;22.52
24278;BMP280;12394;42.692;23.314;2022-11-25T09:16:41;95135.63;;;22.62
24278;BMP280;12394;42.692;23.314;2022-11-25T09:19:07;95145.78;;;23.17
24278;BMP280;12394;42.692;23.314;2022-11-25T09:21:32;95150.38;;;23.66
24278;BMP280;12394;42.692;23.314;2022-11-25T09:23:58;95140.09;;;24.40
24278;BMP280;12394;42.692;23.314;2022-11-25T09:26:26;95143.25;;;24.18
24278;BMP280;12394;42.692;23.314;2022-11-25T09:28:53;95150.53;;;23.13
24278;BMP280;12394;42.692;23.314;2022-11-25T09:31:19;95136.94;;;23.80
24278;BMP280;12394;42.692;23.314;2022-11-25T09:33:45;95154.09;;;23.39
24278;BMP280;12394;42.692;23.314;2022-11-25T09:36:12;95154.00;;;22.60
24278;BMP280;12394;42.692;23.314;2022-11-25T09:38:38;95140.03;;;23.24
24278;BMP280;12394;42.692;23.314;2022-11-25T09:41:09;95149.91;;;24.08
24278;BMP280;12394;42.692;23.314;2022-11-25T09:46:53;95150.31;;;24.01
24278;BMP280;12394;42.692;23.314;2022-11-25T09:52:56;95143.31;;;20.12
24278;BMP280;12394;42.692;23.314;2022-11-25T09:55:29;95139.38;;;20.34
24278;BMP280;12394;42.692;23.314;2022-11-25T09:58:23;95148.84;;;19.68
24278;BMP280;12394;42.692;23.314;2022-11-25T10:00:51;95146.00;;;18.39
24278;BMP280;12394;42.692;23.314;2022-11-25T10:03:29;95149.50;;;17.29
24278;BMP280;12394;42.692;23.314;2022-11-25T10:06:14;95143.81;;;15.42
24278;BMP280;12394;42.692;23.314;2022-11-25T10:08:46;95132.09;;;13.69
24278;BMP280;12394;42.692;23.314;2022-11-25T10:14:04;95136.75;;;15.55
24278;BMP280;12394;42.692;23.314;2022-11-25T10:24:44;95140.25;;;17.85
24278;BMP280;12394;42.692;23.314;2022-11-25T10:27:18;95141.47;;;19.23
24278;BMP280;12394;42.692;23.314;2022-11-25T10:29:53;95142.16;;;19.15
24278;BMP280;12394;42.692;23.314;2022-11-25T10:32:24;95129.69;;;16.83
24278;BMP280;12394;42.692;23.314;2022-11-25T10:34:57;95142.97;;;14.37
24278;BMP280;12394;42.692;23.314;2022-11-25T10:37:34;95134.19;;;12.74
24278;BMP280;12394;42.692;23.314;2022-11-25T10:40:00;95123.22;;;11.81
24278;BMP280;12394;42.692;23.314;2022-11-25T10:42:27;95129.59;;;12.17
24278;BMP280;12394;42.692;23.314;2022-11-25T10:44:53;95126.16;;;12.58
24278;BMP280;12394;42.692;23.314;2022-11-25T10:53:16;95138.28;;;15.20
24278;BMP280;12394;42.692;23.314;2022-11-25T10:56:02;95139.84;;;14.82
24278;BMP280;12394;42.692;23.314;2022-11-25T10:58:38;95151.53;;;13.75
24278;BMP280;12394;42.692;23.314;2022-11-25T11:01:20;95154.00;;;14.29
24278;BMP280;12394;42.692;23.314;2022-11-25T11:03:52;95145.25;;;14.55
24278;BMP280;12394;42.692;23.314;2022-11-25T11:06:40;95127.09;;;14.41
24278;BMP280;12394;42.692;23.314;2022-11-25T11:09:33;95145.63;;;14.14
24278;BMP280;12394;42.692;23.314;2022-11-25T11:12:29;95150.97;;;13.10
24278;BMP280;12394;42.692;23.314;2022-11-25T11:15:13;95143.00;;;12.23
24278;BMP280;12394;42.692;23.314;2022-11-25T11:17:40;95148.94;;;11.41
24278;BMP280;12394;42.692;23.314;2022-11-25T11:22:31;95160.63;;;11.30
24278;BMP280;12394;42.692;23.314;2022-11-25T11:27:52;95156.91;;;10.47
24278;BMP280;12394;42.692;23.314;2022-11-25T11:30:23;95127.84;;;10.27
24278;BMP280;12394;42.692;23.314;2022-11-25T11:35:28;95167.47;;;10.15
24278;BMP280;12394;42.692;23.314;2022-11-25T11:38:00;95146.53;;;10.26
24278;BMP280;12394;42.692;23.314;2022-11-25T11:40:43;95169.69;;;9.96
24278;BMP280;12394;42.692;23.314;2022-11-25T11:46:26;95177.53;;;9.96
24278;BMP280;12394;42.692;23.314;2022-11-25T11:51:46;95153.25;;;10.20
24278;BMP280;12394;42.692;23.314;2022-11-25T11:54:17;95174.94;;;10.20
24278;BMP280;12394;42.692;23.314;2022-11-25T11:57:04;95157.00;;;10.12
24278;BMP280;12394;42.692;23.314;2022-11-25T11:59:46;95169.72;;;9.99
24278;BMP280;12394;42.692;23.314;2022-11-25T12:02:37;95165.53;;;10.37
24278;BMP280;12394;42.692;23.314;2022-11-25T12:05:21;95158.47;;;10.34
24278;BMP280;12394;42.692;23.314;2022-11-25T12:08:13;95167.81;;;10.28
24278;BMP280;12394;42.692;23.314;2022-11-25T12:10:53;95157.34;;;10.35
24278;BMP280;12394;42.692;23.314;2022-11-25T12:13:39;95150.28;;;10.25
24278;BMP280;12394;42.692;23.314;2022-11-25T12:16:12;95161.47;;;10.04
24278;BMP280;12394;42.692;23.314;2022-11-25T12:21:10;95172.34;;;9.53
24278;BMP280;12394;42.692;23.314;2022-11-25T12:26:44;95176.06;;;9.88
24278;BMP280;12394;42.692;23.314;2022-11-25T12:29:30;95171.97;;;9.90
24278;BMP280;12394;42.692;23.314;2022-11-25T12:34:43;95194.34;;;9.59
24278;BMP280;12394;42.692;23.314;2022-11-25T12:37:20;95169.72;;;9.85
24278;BMP280;12394;42.692;23.314;2022-11-25T12:42:47;95184.66;;;9.63
24278;BMP280;12394;42.692;23.314;2022-11-25T12:45:33;95171.19;;;9.36
24278;BMP280;12394;42.692;23.314;2022-11-25T12:48:01;95177.56;;;9.46
24278;BMP280;12394;42.692;23.314;2022-11-25T12:55:39;95168.22;;;9.45
24278;BMP280;12394;42.692;23.314;2022-11-25T13:17:12;95140.50;;;8.66
24278;BMP280;12394;42.692;23.314;2022-11-25T13:19:38;95151.31;;;8.79
24278;BMP280;12394;42.692;23.314;2022-11-25T13:22:21;95161.41;;;8.80
24278;BMP280;12394;42.692;23.314;2022-11-25T13:24:51;95147.22;;;8.74
24278;BMP280;12394;42.692;23.314;2022-11-25T13:33:53;95160.59;;;8.62
24278;BMP280;12394;42.692;23.314;2022-11-25T13:36:16;95155.31;;;8.44
24278;BMP280;12394;42.692;23.314;2022-11-25T13:41:22;95151.53;;;8.35
24278;BMP280;12394;42.692;23.314;2022-11-25T13:43:59;95164.66;;;8.53
24278;BMP280;12394;42.692;23.314;2022-11-25T13:48:59;95167.94;;;8.39
24278;BMP280;12394;42.692;23.314;2022-11-25T13:51:24;95167.19;;;8.42
24278;BMP280;12394;42.692;23.314;2022-11-25T13:54:15;95160.84;;;8.36
24278;BMP280;12394;42.692;23.314;2022-11-25T13:56:58;95150.28;;;8.18
24278;BMP280;12394;42.692;23.314;2022-11-25T13:59:47;95170.38;;;8.14
24278;BMP280;12394;42.692;23.314;2022-11-25T14:02:43;95172.56;;;8.09
24278;BMP280;12394;42.692;23.314;2022-11-25T14:11:12;95172.03;;;7.82
24278;BMP280;12394;42.692;23.314;2022-11-25T14:17:03;95187.94;;;7.70
24278;BMP280;12394;42.692;23.314;2022-11-25T14:25:51;95200.84;;;7.55
24278;BMP280;12394;42.692;23.314;2022-11-25T14:30:49;95196.63;;;7.40
24278;BMP280;12394;42.692;23.314;2022-11-25T14:33:19;95211.75;;;7.28
24278;BMP280;12394;42.692;23.314;2022-11-25T14:35:51;95183.38;;;7.15
24278;BMP280;12394;42.692;23.314;2022-11-25T14:38:34;95199.06;;;7.23
24278;BMP280;12394;42.692;23.314;2022-11-25T14:41:18;95200.41;;;7.09
24278;BMP280;12394;42.692;23.314;2022-11-25T14:44:14;95198.84;;;7.01
24278;BMP280;12394;42.692;23.314;2022-11-25T14:46:51;95199.16;;;6.96
24278;BMP280;12394;42.692;23.314;2022-11-25T14:49:17;95207.75;;;7.00
24278;BMP280;12394;42.692;23.314;2022-11-25T14:51:46;95208.94;;;7.06
24278;BMP280;12394;42.692;23.314;2022-11-25T14:54:12;95209.28;;;7.05
24278;BMP280;12394;42.692;23.314;2022-11-25T14:56:39;95199.91;;;6.97
24278;BMP280;12394;42.692;23.314;2022-11-25T14:59:07;95207.84;;;7.07
24278;BMP280;12394;42.692;23.314;2022-11-25T15:01:35;95211.50;;;7.03
24278;BMP280;12394;42.692;23.314;2022-11-25T15:06:33;95211.34;;;6.89
24278;BMP280;12394;42.692;23.314;2022-11-25T15:09:01;95194.09;;;6.74
24278;BMP280;12394;42.692;23.314;2022-11-25T15:11:30;95211.22;;;6.78
24278;BMP280;12394;42.692;23.314;2022-11-25T15:14:02;95200.31;;;6.65
24278;BMP280;12394;42.692;23.314;2022-11-25T15:16:36;95152.03;;;6.35
24278;BMP280;12394;42.692;23.314;2022-11-25T15:19:05;95214.88;;;6.74
24278;BMP280;12394;42.692;23.314;2022-11-25T15:21:34;95220.78;;;6.70
24278;BMP280;12394;42.692;23.314;2022-11-25T15:26:51;95223.34;;;6.67
24278;BMP280;12394;42.692;23.314;2022-11-25T15:29:16;95220.78;;;6.70
24278;BMP280;12394;42.692;23.314;2022-11-25T15:31:45;95226.72;;;6.67
24278;BMP280;12394;42.692;23.314;2022-11-25T15:34:13;95218.53;;;6.69
24278;BMP280;12394;42.692;23.314;2022-11-25T15:36:40;95235.72;;;6.77
24278;BMP280;12394;42.692;23.314;2022-11-25T15:42:05;95237.03;;;6.64
24278;BMP280;12394;42.692;23.314;2022-11-25T15:44:43;95230.56;;;6.51
24278;BMP280;12394;42.692;23.314;2022-11-25T15:47:24;95237.69;;;6.54
24278;BMP280;12394;42.692;23.314;2022-11-25T15:50:00;95244.34;;;6.55
24278;BMP280;12394;42.692;23.314;2022-11-25T15:52:30;95249.53;;;6.55
24278;BMP280;12394;42.692;23.314;2022-11-25T15:55:01;95253.97;;;6.51
24278;BMP280;12394;42.692;23.314;2022-11-25T15:57:31;95246.16;;;6.51
24278;BMP280;12394;42.692;23.314;2022-11-25T16:16:12;95251.75;;;6.53
24278;BMP280;12394;42.692;23.314;2022-11-25T16:21:38;95243.44;;;6.40
24278;BMP280;12394;42.692;23.314;2022-11-25T16:26:37;95264.75;;;6.53
24278;BMP280;12394;42.692;23.314;2022-11-25T16:29:15;95269.47;;;6.44
24278;BMP280;12394;42.692;23.314;2022-11-25T16:31:41;95271.06;;;6.52
24278;BMP280;12394;42.692;23.314;2022-11-25T16:34:15;95265.44;;;6.50
24278;BMP280;12394;42.692;23.314;2022-11-25T16:36:41;95270.97;;;6.45
24278;BMP280;12394;42.692;23.314;2022-11-25T16:39:06;95277.84;;;6.34
24278;BMP280;12394;42.692;23.314;2022-11-25T16:41:32;95252.41;;;6.20
24278;BMP280;12394;42.692;23.314;2022-11-25T16:43:59;95266.00;;;6.36
24278;BMP280;12394;42.692;23.314;2022-11-25T16:46:25;95266.31;;;6.31
24278;BMP280;12394;42.692;23.314;2022-11-25T16:48:50;95266.25;;;6.28
24278;BMP280;12394;42.692;23.314;2022-11-25T16:51:22;95264.66;;;6.19
24278;BMP280;12394;42.692;23.314;2022-11-25T16:53:50;95257.28;;;6.21
24278;BMP280;12394;42.692;23.314;2022-11-25T16:56:27;95262.81;;;6.20
24278;BMP280;12394;42.692;23.314;2022-11-25T16:58:53;95258.66;;;6.15
24278;BMP280;12394;42.692;23.314;2022-11-25T17:01:22;95261.59;;;6.14
24278;BMP280;12394;42.692;23.314;2022-11-25T17:03:48;95264.16;;;6.10
24278;BMP280;12394;42.692;23.314;2022-11-25T17:06:20;95270.50;;;6.13
24278;BMP280;12394;42.692;23.314;2022-11-25T17:08:45;95261.50;;;6.07
24278;BMP280;12394;42.692;23.314;2022-11-25T17:11:21;95263.59;;;5.98
24278;BMP280;12394;42.692;23.314;2022-11-25T17:13:49;95281.53;;;6.06
24278;BMP280;12394;42.692;23.314;2022-11-25T17:16:18;95275.25;;;6.07
24278;BMP280;12394;42.692;23.314;2022-11-25T17:18:45;95262.84;;;5.97
24278;BMP280;12394;42.692;23.314;2022-11-25T17:21:12;95276.38;;;6.10
24278;BMP280;12394;42.692;23.314;2022-11-25T17:23:38;95281.69;;;6.17
24278;BMP280;12394;42.692;23.314;2022-11-25T17:26:03;95285.38;;;6.16
24278;BMP280;12394;42.692;23.314;2022-11-25T17:28:29;95281.03;;;6.23
24278;BMP280;12394;42.692;23.314;2022-11-25T17:30:54;95273.16;;;6.16
24278;BMP280;12394;42.692;23.314;2022-11-25T17:33:20;95292.94;;;6.24
24278;BMP280;12394;42.692;23.314;2022-11-25T17:35:45;95291.78;;;6.22
24278;BMP280;12394;42.692;23.314;2022-11-25T17:38:13;95289.88;;;6.19
24278;BMP280;12394;42.692;23.314;2022-11-25T17:40:41;95291.34;;;6.16
24278;BMP280;12394;42.692;23.314;2022-11-25T17:43:13;95275.31;;;5.88
24278;BMP280;12394;42.692;23.314;2022-11-25T17:45:40;95288.69;;;6.13
24278;BMP280;12394;42.692;23.314;2022-11-25T17:48:15;95297.97;;;6.14
24278;BMP280;12394;42.692;23.314;2022-11-25T17:50:42;95300.75;;;6.02
24278;BMP280;12394;42.692;23.314;2022-11-25T17:53:08;95300.75;;;6.02
24278;BMP280;12394;42.692;23.314;2022-11-25T17:55:37;95303.41;;;6.05
24278;BMP280;12394;42.692;23.314;2022-11-25T17:58:04;95299.72;;;6.06
24278;BMP280;12394;42.692;23.314;2022-11-25T18:00:31;95309.16;;;6.18
24278;BMP280;12394;42.692;23.314;2022-11-25T18:02:57;95316.31;;;6.24
24278;BMP280;12394;42.692;23.314;2022-11-25T18:05:24;95307.72;;;6.20
24278;BMP280;12394;42.692;23.314;2022-11-25T18:07:51;95318.44;;;6.19
24278;BMP280;12394;42.692;23.314;2022-11-25T18:10:19;95299.75;;;6.10
24278;BMP280;12394;42.692;23.314;2022-11-25T18:12:47;95303.84;;;6.11
24278;BMP280;12394;42.692;23.314;2022-11-25T18:15:16;95308.31;;;6.10
24278;BMP280;12394;42.692;23.314;2022-11-25T18:17:42;95310.19;;;6.13
24278;BMP280;12394;42.692;23.314;2022-11-25T18:20:23;95307.59;;;6.13
24278;BMP280;12394;42.692;23.314;2022-11-25T18:22:50;95308.31;;;6.10
24278;BMP280;12394;42.692;23.314;2022-11-25T18:25:22;95291.75;;;5.96
24278;BMP280;12394;42.692;23.314;2022-11-25T18:27:48;95287.19;;;5.89
24278;BMP280;12394;42.692;23.314;2022-11-25T18:30:20;95310.72;;;6.00
24278;BMP280;12394;42.692;23.314;2022-11-25T18:32:47;95287.31;;;5.77
24278;BMP280;12394;42.692;23.314;2022-11-25T18:35:18;95311.03;;;5.95
24278;BMP280;12394;42.692;23.314;2022-11-25T18:37:44;95315.53;;;5.98
24278;BMP280;12394;42.692;23.314;2022-11-25T18:40:10;95302.78;;;5.89
24278;BMP280;12394;42.692;23.314;2022-11-25T18:42:35;95314.44;;;5.99
24278;BMP280;12394;42.692;23.314;2022-11-25T18:45:01;95319.22;;;5.97
24278;BMP280;12394;42.692;23.314;2022-11-25T18:47:26;95319.22;;;5.97
24278;BMP280;12394;42.692;23.314;2022-11-25T18:49:52;95320.66;;;5.94
24278;BMP280;12394;42.692;23.314;2022-11-25T18:52:17;95320.25;;;5.92
24278;BMP280;12394;42.692;23.314;2022-11-25T18:54:42;95316.75;;;5.85
24278;BMP280;12394;42.692;23.314;2022-11-25T18:57:12;95323.66;;;5.96
24278;BMP280;12394;42.692;23.314;2022-11-25T18:59:40;95331.50;;;6.00
24278;BMP280;12394;42.692;23.314;2022-11-25T19:02:16;95325.25;;;6.04
24278;BMP280;12394;42.692;23.314;2022-11-25T19:04:42;95330.47;;;6.04
24278;BMP280;12394;42.692;23.314;2022-11-25T19:07:08;95337.56;;;6.07
24278;BMP280;12394;42.692;23.314;2022-11-25T19:09:34;95333.53;;;6.10
24278;BMP280;12394;42.692;23.314;2022-11-25T19:11:59;95330.53;;;6.08
24278;BMP280;12394;42.692;23.314;2022-11-25T19:14:32;95336.47;;;6.08
24278;BMP280;12394;42.692;23.314;2022-11-25T19:17:01;95342.78;;;6.07
24278;BMP280;12394;42.692;23.314;2022-11-25T19:19:27;95343.97;;;6.13
24278;BMP280;12394;42.692;23.314;2022-11-25T19:21:52;95342.34;;;6.05
24278;BMP280;12394;42.692;23.314;2022-11-25T19:24:18;95339.41;;;6.07
24278;BMP280;12394;42.692;23.314;2022-11-25T19:26:49;95352.13;;;6.12
24278;BMP280;12394;42.692;23.314;2022-11-25T19:29:30;95340.84;;;6.04
24278;BMP280;12394;42.692;23.314;2022-11-25T19:31:58;95350.56;;;6.07
24278;BMP280;12394;42.692;23.314;2022-11-25T19:34:30;95358.81;;;6.13
24278;BMP280;12394;42.692;23.314;2022-11-25T19:36:57;95361.75;;;6.11
24278;BMP280;12394;42.692;23.314;2022-11-25T19:39:22;95367.22;;;6.06
24278;BMP280;12394;42.692;23.314;2022-11-25T19:41:48;95354.94;;;6.03
24278;BMP280;12394;42.692;23.314;2022-11-25T19:44:14;95365.19;;;5.96
24278;BMP280;12394;42.692;23.314;2022-11-25T19:46:43;95363.34;;;5.97
24278;BMP280;12394;42.692;23.314;2022-11-25T19:49:10;95356.78;;;5.83